Huvudsida
METAR-TAF:

METAR-TAF

Flygplatser :

Air Force Base Waterkloof

Waterkloof, Sydafrika

latitud: 25-50S, longitud: 028-13E, höjd: 1498 m

METAR: saknas

Tid: 20:45 (18:45 UTC)

Väderprognos

Denna rapport gjordes för 9 timmar och 45 minuter sedan, klockan 09:00 UTC
Prognos gäller från 23 kl. 10 UTC till 23 kl. 18 UTC
Vind 3 kt varierande vindriktning
Sikt 10 km eller mer
Inga moln under 1 500 m eller inga cumulonimbus

TAF: FAWK 230900Z 2310/2318 VRB03KT CAVOK TX22/2313Z TN12/2318Z

Aktuella väderrapporter och prognoser från 4000 flygplatser (METAR- och TAF-rapporter).

De tillgängliga stationerna syns som gula och röda prickar på kartan.

För musen över prickarna för att se namnen på stationerna.

Klicka sedan för att få väderrapporter och prognoser.

För att ändra kartan: Klicka på de gröna knapparna med ett svart kors på för att zooma in; den gröna knappen med ett streck på för att zooma ut; eller på de gröna pilarna för angränsande kartor.


METAR-TAF: